Time;durP1;ratioP1;P1;durP2;ratioP2;P2;SDS_P1;SDS_P2;PMS_P1;PMS_P2;Temp;Humidity;BMP_temperature;BMP_pressure;BME280_temperature;BME280_humidity;BME280_pressure;Samples;Min_cycle;Max_cycle;Signal;HPM_P1;HPM_P2
2020/12/16 00:01:04;;;;;;;62.63;35.85;;;5.60;92.10;;;;;;5093147;28;20031;-75
2020/12/16 00:03:31;;;;;;;72.13;38.08;;;5.50;92.00;;;;;;5094783;28;20028;-76
2020/12/16 00:05:57;;;;;;;68.60;39.03;;;5.40;92.20;;;;;;5093829;28;20028;-76
2020/12/16 00:08:23;;;;;;;70.80;40.05;;;5.20;92.30;;;;;;5093074;28;20349;-77
2020/12/16 00:10:49;;;;;;;69.47;38.80;;;5.20;92.60;;;;;;5093440;28;20383;-76
2020/12/16 00:13:14;;;;;;;70.35;36.33;;;5.20;92.60;;;;;;5093820;28;20077;-75
2020/12/16 00:15:40;;;;;;;91.07;44.42;;;5.20;92.60;;;;;;5092705;28;20482;-75
2020/12/16 00:18:06;;;;;;;122.28;64.70;;;5.20;92.70;;;;;;5093085;28;20040;-74
2020/12/16 00:20:32;;;;;;;90.53;45.90;;;5.10;92.90;;;;;;5093169;28;20073;-75
2020/12/16 00:22:58;;;;;;;82.55;42.72;;;5.20;92.80;;;;;;5092841;28;20432;-74
2020/12/16 00:25:24;;;;;;;73.85;39.20;;;5.30;92.80;;;;;;5094386;28;20027;-76
2020/12/16 00:27:50;;;;;;;68.22;37.15;;;5.30;92.70;;;;;;5093043;28;20064;-74
2020/12/16 00:30:15;;;;;;;84.72;42.20;;;5.40;92.40;;;;;;5092282;28;20072;-76
2020/12/16 00:32:41;;;;;;;144.85;61.50;;;5.40;92.40;;;;;;5093766;28;20062;-76
2020/12/16 00:35:08;;;;;;;82.53;43.72;;;5.30;92.60;;;;;;5092571;28;20039;-74
2020/12/16 00:37:39;;;;;;;70.85;39.25;;;5.30;92.50;;;;;;5094131;28;20123;-75
2020/12/16 00:40:06;;;;;;;73.97;39.75;;;5.40;92.60;;;;;;5092906;28;20020;-74
2020/12/16 00:42:32;;;;;;;72.40;39.85;;;5.40;92.60;;;;;;5092648;28;20122;-74
2020/12/16 00:44:58;;;;;;;84.20;45.97;;;5.40;92.40;;;;;;5093824;28;20456;-75
2020/12/16 00:47:24;;;;;;;73.45;40.55;;;5.40;92.60;;;;;;5092803;28;20031;-74
2020/12/16 00:49:50;;;;;;;71.13;39.67;;;5.30;92.50;;;;;;5093504;28;20472;-74
2020/12/16 00:52:17;;;;;;;84.65;43.88;;;5.40;92.50;;;;;;5092718;28;20459;-74
2020/12/16 00:54:43;;;;;;;73.38;42.50;;;5.40;92.80;;;;;;5093232;28;20097;-76
2020/12/16 00:57:09;;;;;;;76.38;41.70;;;5.40;92.50;;;;;;5092333;28;20034;-75
2020/12/16 00:59:35;;;;;;;78.80;41.67;;;5.40;92.40;;;;;;5092588;28;20382;-77
2020/12/16 01:02:04;;;;;;;77.20;42.53;;;5.40;92.50;;;;;;5092856;28;20032;-75
2020/12/16 01:04:30;;;;;;;77.07;40.63;;;5.40;92.50;;;;;;5092270;28;20027;-75
2020/12/16 01:06:55;;;;;;;74.38;41.45;;;5.40;92.60;;;;;;5092566;28;20028;-74
2020/12/16 01:09:21;;;;;;;81.82;43.28;;;5.40;92.60;;;;;;5097606;28;20024;-75
2020/12/16 01:11:47;;;;;;;72.88;42.55;;;5.40;92.60;;;;;;5096452;28;20024;-74
2020/12/16 01:14:12;;;;;;;85.43;43.88;;;5.40;92.50;;;;;;5097968;28;20031;-74
2020/12/16 01:16:38;;;;;;;81.13;43.40;;;5.40;92.60;;;;;;5098450;28;20048;-75
2020/12/16 01:19:06;;;;;;;79.70;43.25;;;5.40;92.60;;;;;;5096372;28;20063;-77
2020/12/16 01:21:36;;;;;;;83.20;43.13;;;5.50;92.60;;;;;;5097541;28;20028;-75
2020/12/16 01:24:05;;;;;;;80.93;42.78;;;5.50;92.60;;;;;;5096564;28;20024;-76
2020/12/16 01:26:48;;;;;;;85.95;47.45;;;5.50;92.50;;;;;;5096210;28;20056;-74
2020/12/16 01:29:14;;;;;;;83.45;45.10;;;5.50;92.30;;;;;;5096408;28;20028;-75
2020/12/16 01:31:46;;;;;;;85.07;46.03;;;5.40;92.40;;;;;;5097818;28;20052;-74
2020/12/16 01:34:12;;;;;;;84.22;44.38;;;5.40;92.40;;;;;;5096249;28;20020;-73
2020/12/16 01:36:42;;;;;;;78.32;43.22;;;5.30;92.60;;;;;;5096257;28;20039;-75
2020/12/16 01:39:10;;;;;;;90.35;45.22;;;5.20;92.60;;;;;;5096012;28;20043;-75
2020/12/16 01:41:44;;;;;;;93.07;46.95;;;5.20;92.80;;;;;;5096226;28;20024;-75
2020/12/16 01:44:17;;;;;;;87.28;44.97;;;5.10;93.10;;;;;;5096237;28;20028;-76
2020/12/16 01:46:46;;;;;;;93.68;47.78;;;5.00;93.10;;;;;;5095836;28;20464;-75
2020/12/16 01:49:12;;;;;;;85.95;45.28;;;5.10;93.20;;;;;;5096078;28;20028;-74
2020/12/16 01:51:38;;;;;;;79.75;42.53;;;5.10;93.00;;;;;;5096014;28;20031;-76
2020/12/16 01:54:07;;;;;;;86.10;44.88;;;5.10;93.20;;;;;;5095649;28;20020;-75
2020/12/16 01:56:38;;;;;;;81.63;43.15;;;5.10;93.20;;;;;;5095893;28;20479;-76
2020/12/16 01:59:05;;;;;;;91.03;46.70;;;5.10;93.20;;;;;;5097323;28;20089;-74
2020/12/16 02:01:35;;;;;;;91.93;50.17;;;5.10;93.20;;;;;;5095820;28;20036;-73
2020/12/16 02:04:01;;;;;;;104.60;59.40;;;5.20;93.10;;;;;;5096344;28;20028;-74
2020/12/16 02:06:33;;;;;;;98.53;50.60;;;5.20;92.90;;;;;;5095415;28;20024;-75
2020/12/16 02:09:07;;;;;;;90.20;48.22;;;5.30;92.80;;;;;;5095684;28;20118;-75
2020/12/16 02:11:35;;;;;;;87.20;44.65;;;5.30;92.70;;;;;;5095866;28;20452;-74
2020/12/16 02:14:03;;;;;;;87.72;47.35;;;5.20;92.90;;;;;;5095340;28;20028;-73
2020/12/16 02:16:29;;;;;;;110.15;59.50;;;5.30;92.80;;;;;;5095831;28;20470;-74
2020/12/16 02:18:55;;;;;;;87.38;45.65;;;5.30;92.80;;;;;;5095456;28;20032;-74
2020/12/16 02:21:21;;;;;;;95.25;48.33;;;5.30;92.60;;;;;;5094832;28;20379;-75
2020/12/16 02:23:47;;;;;;;90.65;48.88;;;5.10;92.80;;;;;;5095399;28;20020;-74
2020/12/16 02:26:14;;;;;;;98.50;51.30;;;5.10;93.10;;;;;;5095327;28;20024;-74
2020/12/16 02:28:42;;;;;;;90.70;47.78;;;5.10;93.20;;;;;;5095273;28;20032;-74
2020/12/16 02:31:12;;;;;;;119.32;62.85;;;5.10;93.00;;;;;;5095034;28;20051;-74
2020/12/16 02:33:38;;;;;;;118.28;63.38;;;5.20;92.80;;;;;;5095761;28;20474;-74
2020/12/16 02:36:04;;;;;;;125.32;69.03;;;5.20;92.80;;;;;;5094836;28;20115;-74
2020/12/16 02:38:30;;;;;;;93.65;52.10;;;5.10;93.00;;;;;;5095009;28;20032;-75
2020/12/16 02:40:56;;;;;;;94.78;49.65;;;5.10;93.20;;;;;;5095067;28;20020;-76
2020/12/16 02:43:21;;;;;;;93.85;49.30;;;5.10;93.40;;;;;;5094697;28;20031;-76
2020/12/16 02:45:47;;;;;;;96.55;52.60;;;5.10;93.40;;;;;;5094944;28;20077;-75
2020/12/16 02:48:13;;;;;;;98.88;50.67;;;5.10;93.20;;;;;;5094638;28;20056;-74
2020/12/16 02:50:42;;;;;;;89.75;46.03;;;5.00;93.40;;;;;;5095160;28;20036;-74
2020/12/16 02:53:08;;;;;;;92.43;45.78;;;5.00;93.70;;;;;;5094824;28;20024;-73
2020/12/16 02:55:34;;;;;;;87.07;43.58;;;5.00;93.50;;;;;;5095025;28;20029;-74
2020/12/16 02:58:00;;;;;;;99.40;50.08;;;5.00;93.40;;;;;;5095467;28;20032;-74
2020/12/16 03:00:26;;;;;;;96.03;46.00;;;5.00;93.70;;;;;;5094670;28;20379;-75
2020/12/16 03:02:51;;;;;;;94.60;45.70;;;5.00;93.50;;;;;;5095959;28;20035;-75
2020/12/16 03:05:17;;;;;;;83.97;43.08;;;5.00;93.60;;;;;;5094579;28;20028;-74
2020/12/16 03:07:44;;;;;;;89.15;44.28;;;5.00;93.60;;;;;;5094500;28;20032;-77
2020/12/16 03:10:10;;;;;;;89.60;42.80;;;4.90;93.70;;;;;;5094177;28;20024;-74
2020/12/16 03:12:35;;;;;;;84.82;43.13;;;4.80;93.80;;;;;;5094444;28;20093;-73
2020/12/16 03:15:01;;;;;;;86.55;41.78;;;4.80;93.80;;;;;;5094430;28;20048;-75
2020/12/16 03:17:27;;;;;;;89.47;42.90;;;4.90;93.60;;;;;;5095347;28;20024;-74
2020/12/16 03:19:53;;;;;;;88.95;42.95;;;4.80;93.80;;;;;;5094315;28;20115;-75
2020/12/16 03:22:19;;;;;;;89.65;44.05;;;4.80;93.70;;;;;;5093953;28;20186;-74
2020/12/16 03:24:44;;;;;;;84.20;41.78;;;4.80;93.70;;;;;;5094116;28;20097;-76
2020/12/16 03:27:10;;;;;;;82.93;42.42;;;4.90;93.40;;;;;;5094200;28;20073;-75
2020/12/16 03:29:36;;;;;;;83.57;40.78;;;4.90;93.40;;;;;;5093959;28;20081;-74
2020/12/16 03:32:01;;;;;;;80.95;42.28;;;5.00;93.40;;;;;;5093368;28;20475;-75
2020/12/16 03:34:27;;;;;;;82.32;40.78;;;5.10;93.40;;;;;;5094092;28;20077;-74
2020/12/16 03:36:53;;;;;;;82.82;42.08;;;5.10;93.30;;;;;;5094005;28;20039;-77
2020/12/16 03:39:19;;;;;;;87.85;43.10;;;5.10;93.20;;;;;;5093607;28;20029;-75
2020/12/16 03:41:44;;;;;;;88.28;43.17;;;5.10;93.30;;;;;;5094516;28;20474;-74
2020/12/16 03:44:10;;;;;;;83.03;42.53;;;5.10;93.30;;;;;;5094855;28;20054;-74
2020/12/16 03:46:36;;;;;;;103.72;49.88;;;5.20;93.20;;;;;;5093881;28;20370;-74
2020/12/16 03:49:02;;;;;;;97.88;45.92;;;5.10;93.10;;;;;;5094302;28;20408;-76
2020/12/16 03:51:27;;;;;;;87.78;44.20;;;5.10;92.90;;;;;;5093432;28;20456;-74
2020/12/16 03:53:53;;;;;;;85.78;42.65;;;5.10;93.00;;;;;;5093323;28;20028;-73
2020/12/16 03:56:19;;;;;;;83.45;42.53;;;5.10;92.80;;;;;;5093620;28;20111;-73
2020/12/16 03:58:46;;;;;;;85.60;43.22;;;5.10;92.80;;;;;;5093137;28;20081;-74
2020/12/16 04:01:18;;;;;;;94.10;46.28;;;5.10;93.20;;;;;;5094060;28;20028;-76
2020/12/16 04:03:45;;;;;;;93.75;45.05;;;5.20;93.10;;;;;;5093494;28;20085;-75
2020/12/16 04:06:12;;;;;;;88.07;43.63;;;5.20;93.00;;;;;;5092862;28;20124;-75
2020/12/16 04:08:42;;;;;;;82.40;41.97;;;5.30;92.90;;;;;;5094420;28;20028;-76
2020/12/16 04:11:14;;;;;;;80.93;41.78;;;5.30;92.80;;;;;;5093399;28;20463;-75
2020/12/16 04:13:41;;;;;;;80.22;40.08;;;5.30;92.60;;;;;;5093045;28;20030;-74
2020/12/16 04:16:10;;;;;;;78.38;40.20;;;5.30;92.60;;;;;;5094422;28;20103;-72
2020/12/16 04:18:38;;;;;;;89.13;44.78;;;5.30;92.60;;;;;;5093126;28;20059;-73
2020/12/16 04:21:08;;;;;;;84.97;42.22;;;5.20;92.60;;;;;;5092865;28;20114;-74
2020/12/16 04:23:34;;;;;;;79.35;40.60;;;5.30;92.70;;;;;;5093171;28;20036;-75
2020/12/16 04:26:00;;;;;;;83.78;40.83;;;5.20;92.50;;;;;;5093361;28;20099;-75
2020/12/16 04:28:26;;;;;;;86.30;43.13;;;5.20;92.60;;;;;;5092745;28;20119;-74
2020/12/16 04:30:52;;;;;;;83.50;42.08;;;5.30;92.80;;;;;;5092801;28;20076;-75
2020/12/16 04:33:18;;;;;;;80.32;40.17;;;5.30;92.70;;;;;;5092991;28;20372;-73
2020/12/16 04:35:44;;;;;;;80.30;40.75;;;5.30;92.70;;;;;;5092915;28;20536;-74
2020/12/16 04:38:10;;;;;;;82.95;40.92;;;5.30;92.60;;;;;;5092884;28;20129;-74
2020/12/16 04:40:36;;;;;;;79.65;41.35;;;5.30;92.50;;;;;;5092640;28;20050;-74
2020/12/16 04:43:08;;;;;;;80.90;40.33;;;5.30;92.40;;;;;;5092157;28;20027;-76
2020/12/16 04:45:43;;;;;;;79.60;39.80;;;5.30;92.50;;;;;;5092856;28;20484;-73
2020/12/16 04:48:10;;;;;;;80.72;40.13;;;5.30;92.50;;;;;;5094129;28;20035;-75
2020/12/16 04:50:37;;;;;;;78.93;39.58;;;5.30;92.50;;;;;;5092787;28;20024;-75
2020/12/16 04:53:05;;;;;;;83.72;41.35;;;5.20;92.50;;;;;;5094018;28;20028;-76
2020/12/16 04:55:31;;;;;;;126.05;61.90;;;5.20;92.90;;;;;;5093342;28;20032;-74
2020/12/16 04:58:00;;;;;;;90.45;45.45;;;5.10;92.80;;;;;;5093896;28;20028;-75
2020/12/16 05:00:27;;;;;;;83.78;42.08;;;5.10;92.90;;;;;;5093214;28;20031;-75
2020/12/16 05:03:01;;;;;;;157.23;78.70;;;5.00;92.90;;;;;;5092327;28;20353;-76
2020/12/16 05:05:27;;;;;;;88.53;44.25;;;5.00;93.20;;;;;;5093584;28;20537;-75
2020/12/16 05:07:53;;;;;;;79.03;40.60;;;5.00;93.20;;;;;;5092626;28;20043;-74
2020/12/16 05:10:33;;;;;;;84.05;40.97;;;4.90;93.00;;;;;;5092352;28;20035;-77
2020/12/16 05:13:08;;;;;;;93.15;45.05;;;4.80;93.00;;;;;;5093076;28;20028;-77
2020/12/16 05:15:35;;;;;;;;;;;4.80;93.30;;;;;;5092690;28;20064;-75
2020/12/16 05:18:11;;;;;;;81.80;41.10;;;4.80;93.20;;;;;;5092431;28;19919;-75
2020/12/16 05:20:40;;;;;;;81.18;39.38;;;4.70;93.30;;;;;;5092187;28;20024;-75
2020/12/16 05:23:07;;;;;;;90.97;41.20;;;4.70;93.60;;;;;;5092083;28;20036;-76
2020/12/16 05:25:33;;;;;;;85.97;41.15;;;4.60;93.80;;;;;;5092466;28;20412;-75
2020/12/16 05:28:00;;;;;;;88.82;42.20;;;4.60;93.80;;;;;;5092638;28;20036;-76
2020/12/16 05:30:26;;;;;;;85.60;39.92;;;4.70;93.70;;;;;;5091922;28;20189;-77
2020/12/16 05:32:53;;;;;;;84.63;39.45;;;4.70;93.70;;;;;;5092396;28;20024;-76
2020/12/16 05:35:36;;;;;;;138.25;75.97;;;4.60;93.60;;;;;;5093628;28;20048;-76
2020/12/16 05:38:04;;;;;;;172.55;86.00;;;4.70;93.70;;;;;;5092125;28;20471;-76
2020/12/16 05:40:32;;;;;;;86.95;42.80;;;4.70;93.30;;;;;;5092252;28;20059;-75
2020/12/16 05:42:58;;;;;;;86.60;40.05;;;4.70;93.50;;;;;;5092287;28;20028;-75
2020/12/16 05:45:27;;;;;;;87.63;42.08;;;4.70;93.50;;;;;;5091623;28;20028;-76
2020/12/16 05:48:03;;;;;;;93.07;45.45;;;4.80;93.50;;;;;;5092266;28;20047;-76
2020/12/16 05:50:40;;;;;;;96.72;46.95;;;4.80;93.40;;;;;;5093232;28;20020;-75
2020/12/16 05:53:10;;;;;;;85.05;40.58;;;4.70;93.30;;;;;;5093139;28;20077;-74
2020/12/16 05:55:36;;;;;;;90.50;44.95;;;4.80;93.10;;;;;;5095939;28;20024;-74
2020/12/16 05:58:13;;;;;;;83.25;40.90;;;4.80;93.20;;;;;;5095605;28;20039;-75
2020/12/16 06:00:45;;;;;;;86.15;42.10;;;4.90;93.00;;;;;;5095954;28;20028;-76
2020/12/16 06:03:19;;;;;;;99.85;46.88;;;4.90;92.80;;;;;;5096433;28;20414;-75
2020/12/16 06:05:56;;;;;;;91.80;48.47;;;4.90;92.90;;;;;;5095613;28;20028;-75
2020/12/16 06:08:36;;;;;;;95.47;49.35;;;5.00;92.60;;;;;;5096992;28;20032;-75
2020/12/16 06:11:07;;;;;;;93.68;46.60;;;4.90;92.80;;;;;;5095620;28;20028;-75
2020/12/16 06:13:33;;;;;;;85.03;42.35;;;4.90;92.70;;;;;;5096996;28;20150;-77
2020/12/16 06:16:07;;;;;;;99.35;50.22;;;4.80;92.90;;;;;;5095572;28;20035;-75
2020/12/16 06:18:37;;;;;;;84.25;40.28;;;4.70;93.00;;;;;;5096654;28;20086;-74
2020/12/16 06:21:05;;;;;;;92.85;47.53;;;4.50;93.30;;;;;;5095512;28;20028;-76
2020/12/16 06:23:32;;;;;;;119.65;62.53;;;4.50;93.40;;;;;;5095500;28;20438;-74
2020/12/16 06:25:59;;;;;;;86.32;41.35;;;4.60;93.40;;;;;;5095057;28;20119;-74
2020/12/16 06:28:25;;;;;;;83.25;41.78;;;4.70;93.30;;;;;;5095311;28;20032;-75
2020/12/16 06:31:00;;;;;;;84.60;41.03;;;4.80;93.10;;;;;;5094908;28;20049;-75
2020/12/16 06:33:58;;;;;;;96.45;47.28;;;4.80;93.00;;;;;;5094951;28;20077;-76
2020/12/16 06:36:32;;;;;;;80.10;39.50;;;4.80;93.00;;;;;;5095194;28;20038;-76
2020/12/16 06:38:59;;;;;;;77.25;37.25;;;4.80;93.10;;;;;;5096253;28;20036;-76
2020/12/16 06:41:26;;;;;;;96.63;47.10;;;4.70;93.00;;;;;;5095802;28;20101;-75
2020/12/16 06:43:54;;;;;;;135.10;61.13;;;4.60;93.10;;;;;;5095028;28;20070;-75
2020/12/16 06:46:32;;;;;;;91.90;42.28;;;4.70;93.30;;;;;;5094694;28;20024;-76
2020/12/16 06:49:03;;;;;;;83.68;39.20;;;4.80;93.10;;;;;;5095073;28;20024;-76
2020/12/16 06:51:36;;;;;;;79.18;38.47;;;4.70;92.80;;;;;;5094595;28;20028;-75
2020/12/16 06:54:13;;;;;;;79.10;38.88;;;4.80;92.90;;;;;;5095098;28;20387;-75
2020/12/16 06:56:39;;;;;;;84.47;40.10;;;4.70;92.90;;;;;;5094795;28;20020;-74
2020/12/16 06:59:05;;;;;;;85.97;39.25;;;4.70;93.10;;;;;;5094835;28;20032;-76
2020/12/16 07:01:31;;;;;;;83.15;38.70;;;4.70;93.10;;;;;;5094372;28;20058;-74
2020/12/16 07:03:58;;;;;;;129.23;53.42;;;4.60;93.30;;;;;;5095962;28;20473;-74
2020/12/16 07:06:30;;;;;;;127.35;62.35;;;4.60;93.50;;;;;;5093790;28;20128;-75
2020/12/16 07:09:30;;;;;;;105.40;50.78;;;4.50;93.00;;;;;;5094285;28;20024;-75
2020/12/16 07:11:56;;;;;;;193.40;94.15;;;4.60;93.20;;;;;;5083586;28;20036;-74
2020/12/16 07:14:35;;;;;;;180.40;92.90;;;4.70;93.40;;;;;;5095235;28;20722;-75
2020/12/16 07:17:09;;;;;;;151.38;74.30;;;4.60;93.10;;;;;;5094485;28;20090;-76
2020/12/16 07:19:35;;;;;;;128.70;65.13;;;4.60;93.30;;;;;;5095951;28;20036;-75
2020/12/16 07:22:17;;;;;;;119.57;60.22;;;4.60;93.00;;;;;;5093858;28;20038;-75
2020/12/16 07:24:48;;;;;;;97.50;46.58;;;4.60;93.20;;;;;;5093682;28;20036;-74
2020/12/16 07:27:20;;;;;;;117.45;61.25;;;4.60;93.30;;;;;;5094882;28;20471;-74
2020/12/16 07:29:54;;;;;;;109.07;51.13;;;4.60;93.10;;;;;;5093604;28;20036;-72
2020/12/16 07:32:22;;;;;;;108.93;60.45;;;4.70;93.00;;;;;;5095715;28;20028;-73
2020/12/16 07:34:57;;;;;;;138.02;72.32;;;4.70;92.80;;;;;;5095330;28;20028;-72
2020/12/16 07:37:30;;;;;;;114.10;57.38;;;4.70;93.00;;;;;;5093050;28;20115;-73
2020/12/16 07:39:59;;;;;;;100.78;52.33;;;4.70;92.80;;;;;;5092046;28;20052;-72
2020/12/16 07:42:33;;;;;;;112.90;61.58;;;4.70;92.80;;;;;;5092411;28;20103;-72
2020/12/16 07:45:09;;;;;;;92.97;45.17;;;4.70;92.90;;;;;;5094585;28;20047;-74
2020/12/16 07:47:37;;;;;;;81.70;40.47;;;4.80;92.90;;;;;;5093452;28;20028;-73
2020/12/16 07:50:09;;;;;;;101.22;45.42;;;4.90;92.90;;;;;;5094319;28;20104;-73
2020/12/16 07:52:35;;;;;;;111.75;49.90;;;4.90;92.80;;;;;;5093353;28;20023;-76
2020/12/16 07:55:00;;;;;;;91.85;42.78;;;4.90;92.50;;;;;;5094657;28;20024;-75
2020/12/16 07:57:35;;;;;;;93.93;47.20;;;4.90;92.70;;;;;;5093184;28;20050;-75
2020/12/16 08:00:01;;;;;;;;;;;5.00;92.70;;;;;;5095400;28;20028;-76
2020/12/16 08:02:27;;;;;;;92.03;46.42;;;5.00;92.30;;;;;;5095029;28;20413;-74
2020/12/16 08:05:04;;;;;;;103.72;49.80;;;5.00;92.20;;;;;;5094254;28;20020;-75
2020/12/16 08:07:30;;;;;;;113.32;50.30;;;5.00;92.30;;;;;;5094534;28;20028;-74
2020/12/16 08:10:01;;;;;;;79.43;38.70;;;5.00;92.50;;;;;;5094695;28;20069;-75
2020/12/16 08:12:29;;;;;;;97.55;44.38;;;4.80;92.30;;;;;;5094820;28;20031;-76
2020/12/16 08:15:29;;;;;;;100.68;47.10;;;4.80;92.60;;;;;;5093261;28;20024;-75
2020/12/16 08:17:55;;;;;;;88.28;41.20;;;4.70;92.50;;;;;;5071377;28;20127;-73
2020/12/16 08:20:23;;;;;;;93.25;43.22;;;4.80;92.70;;;;;;5093367;28;20028;-75
2020/12/16 08:22:55;;;;;;;106.70;50.30;;;4.90;92.70;;;;;;5092409;28;20479;-74
2020/12/16 08:25:22;;;;;;;106.00;49.00;;;4.80;92.60;;;;;;5088800;28;20059;-75
2020/12/16 08:27:58;;;;;;;92.38;45.15;;;4.80;93.20;;;;;;5093160;28;20082;-73
2020/12/16 08:30:27;;;;;;;94.95;46.50;;;4.90;92.80;;;;;;5092858;28;20052;-74
2020/12/16 08:32:58;;;;;;;120.47;61.25;;;4.90;92.50;;;;;;5092646;28;20028;-72
2020/12/16 08:35:30;;;;;;;127.55;72.40;;;4.90;92.80;;;;;;5094259;28;20023;-75
2020/12/16 08:38:00;;;;;;;288.45;167.77;;;5.00;92.70;;;;;;5093348;28;20451;-74
2020/12/16 08:40:26;;;;;;;242.25;140.85;;;5.10;92.50;;;;;;5092683;28;20077;-73
2020/12/16 08:42:52;;;;;;;112.95;58.33;;;5.10;92.60;;;;;;5094451;28;20090;-76
2020/12/16 08:45:21;;;;;;;94.32;44.33;;;5.20;92.40;;;;;;5092284;28;20036;-75
2020/12/16 08:47:47;;;;;;;117.50;61.97;;;5.20;92.10;;;;;;5092231;28;20020;-75
2020/12/16 08:50:18;;;;;;;99.80;47.72;;;5.20;92.20;;;;;;5092290;28;20072;-75
2020/12/16 08:52:48;;;;;;;100.50;51.15;;;5.10;92.30;;;;;;5092081;28;20077;-73
2020/12/16 08:55:21;;;;;;;109.38;53.88;;;4.90;92.80;;;;;;5093391;28;20164;-75
2020/12/16 08:58:00;;;;;;;125.03;61.30;;;4.90;92.70;;;;;;5092052;28;20032;-77
2020/12/16 09:00:33;;;;;;;132.48;84.30;;;4.90;92.70;;;;;;5094120;28;20028;-74
2020/12/16 09:03:08;;;;;;;105.05;54.35;;;4.80;92.90;;;;;;5092562;28;20031;-74
2020/12/16 09:05:39;;;;;;;100.75;49.65;;;4.80;92.50;;;;;;5093218;28;20044;-75
2020/12/16 09:08:15;;;;;;;97.43;48.22;;;4.80;92.40;;;;;;5093464;28;20078;-74
2020/12/16 09:10:43;;;;;;;103.68;49.10;;;4.90;92.70;;;;;;5092624;28;20025;-75
2020/12/16 09:13:15;;;;;;;150.18;78.20;;;4.90;92.70;;;;;;5091958;28;20024;-76
2020/12/16 09:15:46;;;;;;;110.78;51.70;;;4.80;92.70;;;;;;5093886;28;20081;-75
2020/12/16 09:18:12;;;;;;;154.68;77.18;;;4.90;92.70;;;;;;5092916;28;20430;-77
2020/12/16 09:20:38;;;;;;;138.30;65.63;;;5.00;92.80;;;;;;5092263;28;20476;-75
2020/12/16 09:23:05;;;;;;;133.73;70.22;;;5.00;92.10;;;;;;5093438;28;20039;-76
2020/12/16 09:25:31;;;;;;;120.93;58.40;;;5.10;92.40;;;;;;5092441;28;20028;-74
2020/12/16 09:27:59;;;;;;;116.88;56.03;;;5.10;92.40;;;;;;5092151;28;20490;-76
2020/12/16 09:30:26;;;;;;;108.90;52.60;;;5.10;92.30;;;;;;5095761;28;20105;-74
2020/12/16 09:32:52;;;;;;;120.40;56.80;;;5.30;92.50;;;;;;5097436;28;20020;-74
2020/12/16 09:35:18;;;;;;;117.40;56.88;;;5.40;92.20;;;;;;5095621;28;20494;-75
2020/12/16 09:37:44;;;;;;;111.25;53.67;;;5.40;92.10;;;;;;5095684;28;20040;-74
2020/12/16 09:40:13;;;;;;;279.08;116.30;;;5.50;92.30;;;;;;5096241;28;20476;-73
2020/12/16 09:42:39;;;;;;;175.43;85.65;;;5.40;92.00;;;;;;5095956;28;20035;-75
2020/12/16 09:45:13;;;;;;;171.02;89.88;;;5.40;91.80;;;;;;5096148;28;20035;-73
2020/12/16 09:47:47;;;;;;;117.90;59.95;;;5.30;91.80;;;;;;5096413;28;20369;-75
2020/12/16 09:50:12;;;;;;;115.57;56.55;;;5.20;91.60;;;;;;5095748;28;20031;-75
2020/12/16 09:52:39;;;;;;;152.20;84.65;;;5.30;91.70;;;;;;5095223;28;20032;-77
2020/12/16 09:55:39;;;;;;;119.13;60.67;;;5.40;91.50;;;;;;5093662;28;20020;-76
2020/12/16 09:58:10;;;;;;;121.93;58.30;;;5.40;91.90;;;;;;5096298;28;20035;-76
2020/12/16 10:00:38;;;;;;;111.97;56.28;;;5.60;92.00;;;;;;5096481;28;20082;-75
2020/12/16 10:03:06;;;;;;;107.82;52.28;;;5.60;91.80;;;;;;5095720;28;20494;-72
2020/12/16 10:05:36;;;;;;;112.15;55.63;;;5.60;91.50;;;;;;5095721;28;20388;-76
2020/12/16 10:08:05;;;;;;;117.47;60.03;;;5.50;91.30;;;;;;5097016;28;20024;-75
2020/12/16 10:10:32;;;;;;;119.95;59.38;;;5.40;91.20;;;;;;5096637;28;20055;-74
2020/12/16 10:12:58;;;;;;;109.18;53.83;;;5.40;91.70;;;;;;5096951;28;20020;-74
2020/12/16 10:15:24;;;;;;;111.70;56.63;;;5.40;91.40;;;;;;5095544;28;20123;-74
2020/12/16 10:17:50;;;;;;;116.43;59.97;;;5.30;91.40;;;;;;5095166;28;20127;-76
2020/12/16 10:20:16;;;;;;;109.85;53.67;;;5.40;91.60;;;;;;5095938;28;20028;-76
2020/12/16 10:22:42;;;;;;;108.20;54.35;;;5.40;91.60;;;;;;5097030;28;20074;-73
2020/12/16 10:25:09;;;;;;;118.22;59.45;;;5.50;91.80;;;;;;5095249;28;20020;-77
2020/12/16 10:27:35;;;;;;;129.63;65.40;;;5.60;92.00;;;;;;5095434;28;20073;-76
2020/12/16 10:30:04;;;;;;;126.82;61.55;;;5.60;91.20;;;;;;5096743;28;20052;-76
2020/12/16 10:32:31;;;;;;;130.98;63.20;;;5.70;91.70;;;;;;5095338;28;20030;-74
2020/12/16 10:34:57;;;;;;;122.90;60.85;;;5.80;91.60;;;;;;5095240;28;20024;-77
2020/12/16 10:37:24;;;;;;;130.20;63.70;;;5.90;91.20;;;;;;5094481;28;20031;-74
2020/12/16 10:39:50;;;;;;;132.52;66.13;;;5.90;91.40;;;;;;5094277;28;20036;-73
2020/12/16 10:42:16;;;;;;;127.22;62.90;;;6.00;91.10;;;;;;5096153;28;20032;-73
2020/12/16 10:44:42;;;;;;;125.68;63.72;;;6.00;91.20;;;;;;5094648;28;20116;-73
2020/12/16 10:47:08;;;;;;;136.07;68.10;;;6.10;91.10;;;;;;5094769;28;20483;-73
2020/12/16 10:49:35;;;;;;;120.13;61.05;;;6.00;91.00;;;;;;5093865;28;20040;-73
2020/12/16 10:52:10;;;;;;;123.75;60.63;;;5.90;90.80;;;;;;5093066;28;20027;-73
2020/12/16 10:54:36;;;;;;;137.38;69.70;;;5.90;91.00;;;;;;5093384;28;20487;-74
2020/12/16 10:57:03;;;;;;;128.30;64.45;;;5.90;90.90;;;;;;5091602;28;20024;-74
2020/12/16 10:59:29;;;;;;;125.57;61.97;;;5.90;91.00;;;;;;5094685;28;20478;-72
2020/12/16 11:01:59;;;;;;;115.75;57.50;;;5.70;91.00;;;;;;5094490;28;20464;-72
2020/12/16 11:04:28;;;;;;;126.03;61.88;;;5.80;91.20;;;;;;5094679;28;20063;-73
2020/12/16 11:06:54;;;;;;;168.05;87.30;;;5.90;91.10;;;;;;5094208;28;20028;-72
2020/12/16 11:09:20;;;;;;;134.43;71.85;;;5.90;90.80;;;;;;5094529;28;20035;-73
2020/12/16 11:11:48;;;;;;;135.38;70.53;;;5.90;91.10;;;;;;5094491;28;20456;-73
2020/12/16 11:14:18;;;;;;;115.35;58.90;;;5.70;91.10;;;;;;5093684;28;20035;-72
2020/12/16 11:16:44;;;;;;;290.73;126.65;;;5.70;91.00;;;;;;5093949;28;20024;-74
2020/12/16 11:19:12;;;;;;;146.85;71.80;;;5.50;91.40;;;;;;5093756;28;20032;-73
2020/12/16 11:21:42;;;;;;;127.40;62.05;;;5.50;91.80;;;;;;5095123;28;20020;-72
2020/12/16 11:24:10;;;;;;;369.45;170.93;;;5.50;91.70;;;;;;5095860;28;20065;-71
2020/12/16 11:26:41;;;;;;;160.68;78.13;;;5.50;91.60;;;;;;5095176;28;20525;-71
2020/12/16 11:29:07;;;;;;;169.30;85.25;;;5.60;91.80;;;;;;5094184;28;20028;-71
2020/12/16 11:31:44;;;;;;;172.35;83.03;;;5.60;91.40;;;;;;5095000;28;20098;-72
2020/12/16 11:34:11;;;;;;;172.48;80.88;;;5.60;91.70;;;;;;5095425;28;20023;-72
2020/12/16 11:36:43;;;;;;;191.23;92.25;;;5.60;91.80;;;;;;5093980;28;20426;-72
2020/12/16 11:39:10;;;;;;;180.60;88.55;;;5.70;91.80;;;;;;5091961;28;20032;-72
2020/12/16 11:41:40;;;;;;;167.88;77.13;;;5.80;91.90;;;;;;5092567;28;20131;-71
2020/12/16 11:44:05;;;;;;;142.30;69.35;;;5.90;91.80;;;;;;5094356;28;20024;-71
2020/12/16 11:46:32;;;;;;;130.07;65.32;;;5.90;91.60;;;;;;5093459;28;20085;-71
2020/12/16 11:48:58;;;;;;;136.75;69.85;;;6.00;91.50;;;;;;5093181;28;20055;-72
2020/12/16 11:51:25;;;;;;;210.02;111.25;;;5.90;91.50;;;;;;5092732;28;20028;-72
2020/12/16 11:53:51;;;;;;;155.10;75.47;;;5.80;91.20;;;;;;5094103;28;20034;-72
2020/12/16 11:56:17;;;;;;;182.40;95.60;;;5.70;91.20;;;;;;5094594;28;20394;-72
2020/12/16 11:58:42;;;;;;;176.15;83.72;;;5.90;91.80;;;;;;5094728;28;20036;-73
2020/12/16 12:01:12;;;;;;;171.02;82.03;;;5.80;91.20;;;;;;5094521;28;20024;-72
2020/12/16 12:03:38;;;;;;;141.68;69.40;;;5.80;91.40;;;;;;5093928;28;20400;-71
2020/12/16 12:06:11;;;;;;;168.07;88.25;;;5.90;91.70;;;;;;5093468;28;20387;-72
2020/12/16 12:08:38;;;;;;;264.52;142.27;;;6.00;91.50;;;;;;5094397;28;20070;-71
2020/12/16 12:11:04;;;;;;;223.20;110.60;;;5.90;91.30;;;;;;5092890;28;20233;-72
2020/12/16 12:13:31;;;;;;;154.65;77.40;;;5.80;91.30;;;;;;5094318;28;20030;-72
2020/12/16 12:15:57;;;;;;;174.50;89.68;;;5.90;91.60;;;;;;5092433;28;20032;-72
2020/12/16 12:18:23;;;;;;;317.70;158.20;;;5.80;91.30;;;;;;5094193;28;20036;-72
2020/12/16 12:20:48;;;;;;;170.73;84.88;;;5.70;91.40;;;;;;5095241;28;20027;-71
2020/12/16 12:23:14;;;;;;;248.88;142.82;;;5.80;91.80;;;;;;5092454;28;20070;-72
2020/12/16 12:25:40;;;;;;;214.05;106.40;;;5.80;91.50;;;;;;5091556;28;20028;-71
2020/12/16 12:28:06;;;;;;;232.15;120.10;;;5.60;91.40;;;;;;5091822;28;20031;-72
2020/12/16 12:30:31;;;;;;;189.50;96.15;;;5.60;91.60;;;;;;5092304;28;20048;-71
2020/12/16 12:32:57;;;;;;;212.90;100.10;;;5.60;91.70;;;;;;5092944;28;20072;-73
2020/12/16 12:35:23;;;;;;;248.48;127.22;;;5.70;91.70;;;;;;5092110;28;20024;-72
2020/12/16 12:37:49;;;;;;;194.95;105.78;;;5.60;91.70;;;;;;5091809;28;20142;-72
2020/12/16 12:40:14;;;;;;;165.18;87.15;;;5.50;91.40;;;;;;5091442;28;20056;-72